Time;durP1;ratioP1;P1;durP2;ratioP2;P2;SDS_P1;SDS_P2;PMS_P1;PMS_P2;Temp;Humidity;BMP_temperature;BMP_pressure;BME280_temperature;BME280_humidity;BME280_pressure;Samples;Min_cycle;Max_cycle;Signal;HPM_P1;HPM_P2
2022/01/14 06:22:43;;;;;;;0.00;0.00;;;3.60;99.90;;;;;;6308219;22;20019;-85
2022/01/14 06:25:10;;;;;;;0.10;0.10;;;3.80;99.90;;;;;;6291870;22;20064;-85
2022/01/14 06:27:37;;;;;;;0.10;0.10;;;3.80;99.90;;;;;;6253171;22;20519;-85
2022/01/14 06:30:06;;;;;;;0.10;0.10;;;3.90;99.90;;;;;;6226669;22;20015;-86
2022/01/14 06:32:33;;;;;;;0.10;0.10;;;3.70;99.90;;;;;;6222383;22;20028;-85
2022/01/14 06:35:01;;;;;;;0.10;0.10;;;;;;;;;;6275627;22;20503;-84
2022/01/14 06:37:28;;;;;;;0.10;0.10;;;;;;;;;;6248954;22;20020;-82
2022/01/14 06:39:56;;;;;;;0.10;0.10;;;3.70;99.90;;;;;;6222605;22;20027;-83
2022/01/14 06:42:23;;;;;;;0.10;0.10;;;3.90;99.90;;;;;;6223362;22;20016;-82
2022/01/14 06:44:50;;;;;;;0.10;0.10;;;4.10;99.90;;;;;;6275906;22;20515;-82
2022/01/14 06:47:17;;;;;;;0.10;0.10;;;;;;;;;;6248213;22;20050;-82
2022/01/14 06:49:44;;;;;;;0.10;0.10;;;4.10;99.90;;;;;;6248476;22;20069;-82
2022/01/14 06:52:11;;;;;;;0.10;0.10;;;3.90;99.90;;;;;;6223431;22;20020;-82
2022/01/14 06:54:38;;;;;;;0.10;0.10;;;;;;;;;;6223856;22;20118;-82
2022/01/14 06:57:06;;;;;;;0.10;0.10;;;3.90;99.90;;;;;;6248678;22;20016;-84
2022/01/14 06:59:33;;;;;;;0.10;0.10;;;4.00;99.90;;;;;;6248277;22;20400;-82
2022/01/14 07:02:01;;;;;;;0.10;0.10;;;4.00;99.90;;;;;;6248434;22;20027;-84
2022/01/14 07:04:28;;;;;;;0.10;0.10;;;4.10;99.90;;;;;;6223098;22;20490;-82
2022/01/14 07:06:55;;;;;;;0.10;0.10;;;4.20;99.90;;;;;;6249008;22;20019;-85
2022/01/14 07:09:22;;;;;;;0.10;0.10;;;4.20;99.90;;;;;;6248712;22;20480;-82
2022/01/14 07:11:55;;;;;;;0.10;0.10;;;4.20;99.90;;;;;;6248410;22;20024;-82
2022/01/14 07:14:23;;;;;;;0.10;0.10;;;4.40;99.90;;;;;;6249477;22;20455;-82
2022/01/14 07:16:50;;;;;;;0.10;0.10;;;4.30;99.90;;;;;;6249038;22;20023;-83
2022/01/14 07:19:20;;;;;;;0.10;0.10;;;4.40;99.90;;;;;;6223173;22;20484;-82
2022/01/14 07:21:47;;;;;;;0.10;0.10;;;;;;;;;;6248619;22;20073;-83
2022/01/14 07:24:14;;;;;;;0.10;0.10;;;4.50;99.90;;;;;;6248883;22;20020;-82
2022/01/14 07:26:42;;;;;;;0.10;0.10;;;4.40;99.90;;;;;;6222029;22;20077;-83
2022/01/14 07:29:09;;;;;;;0.10;0.10;;;;;;;;;;6248630;22;20459;-83
2022/01/14 07:31:37;;;;;;;0.10;0.10;;;4.50;99.90;;;;;;6248813;22;20019;-84
2022/01/14 07:34:04;;;;;;;0.10;0.10;;;4.60;99.90;;;;;;6248712;22;20038;-83
2022/01/14 07:36:35;;;;;;;0.10;0.10;;;4.20;99.90;;;;;;6223614;22;20401;-82
2022/01/14 07:39:05;;;;;;;0.10;0.10;;;4.50;99.90;;;;;;6248802;22;20024;-82
2022/01/14 07:41:32;;;;;;;0.10;0.10;;;4.40;99.90;;;;;;6274785;22;20022;-81
2022/01/14 07:44:00;;;;;;;0.10;0.10;;;4.50;99.90;;;;;;6275168;22;20024;-83
2022/01/14 07:46:27;;;;;;;0.10;0.10;;;4.60;99.90;;;;;;6275864;22;20044;-82
2022/01/14 07:48:56;;;;;;;0.10;0.10;;;4.50;99.90;;;;;;6248063;22;20078;-83
2022/01/14 07:51:22;;;;;;;0.10;0.10;;;4.50;99.90;;;;;;6285102;22;20316;-82
2022/01/14 07:53:49;;;;;;;0.10;0.10;;;4.50;99.90;;;;;;6223204;22;20020;-83
2022/01/14 07:56:16;;;;;;;0.10;0.10;;;4.50;99.90;;;;;;6275481;22;20098;-82
2022/01/14 07:58:44;;;;;;;0.10;0.10;;;;;;;;;;6248326;22;20023;-82
2022/01/14 08:01:11;;;;;;;0.10;0.10;;;4.50;99.90;;;;;;6222748;22;20023;-82
2022/01/14 08:03:38;;;;;;;0.10;0.10;;;4.40;99.90;;;;;;6222959;22;20015;-84
2022/01/14 08:06:09;;;;;;;0.10;0.10;;;4.40;99.90;;;;;;6247795;22;20081;-82
2022/01/14 08:08:38;;;;;;;0.10;0.10;;;;;;;;;;6249750;22;20003;-82
2022/01/14 08:11:05;;;;;;;0.10;0.10;;;4.40;99.90;;;;;;6277654;22;20015;-84
2022/01/14 08:13:33;;;;;;;0.10;0.10;;;4.40;99.90;;;;;;6259451;22;20380;-84
2022/01/14 08:16:01;;;;;;;0.10;0.10;;;;;;;;;;6276826;22;20015;-85
2022/01/14 08:18:28;;;;;;;0.10;0.10;;;4.50;99.90;;;;;;6276338;22;20016;-84
2022/01/14 08:20:56;;;;;;;0.10;0.10;;;4.40;99.90;;;;;;6248854;22;20069;-84
2022/01/14 08:23:24;;;;;;;0.10;0.10;;;4.40;99.90;;;;;;6249733;22;20470;-85
2022/01/14 08:25:53;;;;;;;0.10;0.10;;;4.40;99.90;;;;;;6249498;22;20015;-85
2022/01/14 08:28:20;;;;;;;0.10;0.10;;;4.50;99.90;;;;;;6248765;22;20019;-82
2022/01/14 08:30:47;;;;;;;0.10;0.10;;;4.50;99.90;;;;;;6250047;22;20030;-83
2022/01/14 08:33:14;;;;;;;0.10;0.10;;;4.50;99.90;;;;;;6224370;22;20383;-85
2022/01/14 08:35:41;;;;;;;0.10;0.10;;;4.50;99.90;;;;;;6248707;22;20457;-83
2022/01/14 08:38:08;;;;;;;0.10;0.10;;;4.50;99.90;;;;;;6276531;22;20016;-83
2022/01/14 08:40:36;;;;;;;0.10;0.10;;;4.50;99.90;;;;;;6278281;22;20046;-84
2022/01/14 08:43:04;;;;;;;0.10;0.10;;;4.50;99.90;;;;;;6278957;22;20019;-83
2022/01/14 08:45:31;;;;;;;0.10;0.10;;;4.50;99.90;;;;;;6251889;22;20016;-84
2022/01/14 08:47:59;;;;;;;0.10;0.10;;;4.20;99.90;;;;;;6251800;22;20069;-83
2022/01/14 08:50:27;;;;;;;0.10;0.10;;;4.20;99.90;;;;;;6261814;22;20426;-83
2022/01/14 08:52:54;;;;;;;0.10;0.10;;;4.30;99.90;;;;;;6251342;22;20320;-84
2022/01/14 08:55:22;;;;;;;0.10;0.10;;;4.40;99.90;;;;;;6251465;22;20016;-83
2022/01/14 08:57:51;;;;;;;0.10;0.10;;;4.50;99.90;;;;;;6251607;22;20015;-82
2022/01/14 09:00:23;;;;;;;0.10;0.10;;;4.50;99.90;;;;;;6261210;22;20015;-82
2022/01/14 09:02:50;;;;;;;0.10;0.10;;;4.40;99.90;;;;;;6251845;22;20019;-85
2022/01/14 09:05:17;;;;;;;0.10;0.10;;;4.50;99.90;;;;;;6251456;22;20099;-84
2022/01/14 09:07:44;;;;;;;0.10;0.10;;;4.50;99.90;;;;;;6278226;22;20015;-82
2022/01/14 09:10:13;;;;;;;0.10;0.10;;;4.50;99.90;;;;;;6250637;22;20019;-84
2022/01/14 09:12:42;;;;;;;0.10;0.10;;;4.50;99.90;;;;;;6250784;22;20016;-85
2022/01/14 09:15:11;;;;;;;0.10;0.10;;;4.50;99.90;;;;;;6278405;22;20046;-85
2022/01/14 09:17:40;;;;;;;0.10;0.10;;;4.70;99.90;;;;;;6250646;22;20015;-85
2022/01/14 09:20:08;;;;;;;0.10;0.10;;;4.70;99.90;;;;;;6250173;22;20027;-85
2022/01/14 09:22:35;;;;;;;0.10;0.10;;;4.60;99.90;;;;;;6250079;22;20377;-82
2022/01/14 09:25:07;;;;;;;0.10;0.10;;;4.60;99.90;;;;;;6250998;22;20011;-85
2022/01/14 09:27:34;;;;;;;0.10;0.10;;;4.60;99.90;;;;;;6225188;22;20020;-82
2022/01/14 09:30:02;;;;;;;0.10;0.10;;;4.60;99.90;;;;;;6224933;22;20015;-87
2022/01/14 09:32:31;;;;;;;0.10;0.10;;;4.40;99.90;;;;;;6278866;22;20023;-87
2022/01/14 09:34:58;;;;;;;0.05;0.05;;;4.40;99.90;;;;;;6251389;22;20019;-85
2022/01/14 09:37:25;;;;;;;0.00;0.00;;;4.40;99.90;;;;;;6251900;22;20019;-86
2022/01/14 09:39:52;;;;;;;0.10;0.10;;;;;;;;;;6252183;22;20028;-85
2022/01/14 09:42:18;;;;;;;0.10;0.10;;;4.60;99.90;;;;;;6279231;22;20019;-84
2022/01/14 09:44:45;;;;;;;0.10;0.10;;;4.30;99.90;;;;;;6251350;22;20016;-86
2022/01/14 09:47:17;;;;;;;0.10;0.10;;;4.10;99.90;;;;;;6252417;22;20016;-85
2022/01/14 09:49:46;;;;;;;0.10;0.10;;;4.20;99.90;;;;;;6278895;22;20519;-85
2022/01/14 09:52:14;;;;;;;0.10;0.10;;;4.10;99.90;;;;;;6249196;22;20023;-84
2022/01/14 09:54:43;;;;;;;0.10;0.10;;;4.30;99.90;;;;;;6248980;22;20077;-84
2022/01/14 09:57:11;;;;;;;0.10;0.10;;;4.40;99.90;;;;;;6287229;22;20015;-84
2022/01/14 09:59:38;;;;;;;0.10;0.10;;;4.60;99.90;;;;;;6260219;22;20023;-84
2022/01/14 10:02:06;;;;;;;0.10;0.10;;;;;;;;;;6249135;22;20033;-84
2022/01/14 10:04:35;;;;;;;0.10;0.10;;;4.70;99.90;;;;;;6249163;22;20445;-86
2022/01/14 10:07:05;;;;;;;0.10;0.10;;;4.60;99.90;;;;;;6223891;22;20465;-85
2022/01/14 10:09:35;;;;;;;0.10;0.10;;;4.70;99.90;;;;;;6224985;22;20489;-86
2022/01/14 10:12:06;;;;;;;0.10;0.10;;;4.70;99.90;;;;;;6250966;22;20019;-86
2022/01/14 10:14:36;;;;;;;0.10;0.10;;;4.80;99.90;;;;;;6280108;22;20039;-86
2022/01/14 10:17:05;;;;;;;0.10;0.10;;;4.80;99.90;;;;;;6252014;22;20019;-84
2022/01/14 10:19:36;;;;;;;0.10;0.10;;;4.80;99.90;;;;;;6277721;22;20027;-86
2022/01/14 10:22:19;;;;;;;0.10;0.10;;;4.70;99.90;;;;;;6278351;22;20023;-85
2022/01/14 10:24:54;;;;;;;0.10;0.10;;;4.70;99.90;;;;;;6251085;22;20015;-86
2022/01/14 10:27:34;;;;;;;0.10;0.10;;;4.70;99.90;;;;;;6224204;22;20016;-86
2022/01/14 10:30:12;;;;;;;;;;;4.80;99.90;;;;;;6249278;22;20229;-85
2022/01/14 10:32:40;;;;;;;0.10;0.10;;;4.80;99.90;;;;;;6249436;22;19915;-86
2022/01/14 10:35:10;;;;;;;0.10;0.10;;;4.80;99.90;;;;;;6249234;22;20015;-85
2022/01/14 10:37:44;;;;;;;0.10;0.10;;;4.80;99.90;;;;;;6249252;22;20461;-86
2022/01/14 10:40:16;;;;;;;0.10;0.10;;;4.70;99.90;;;;;;6222532;22;20027;-85
2022/01/14 10:42:45;;;;;;;0.10;0.10;;;4.70;99.90;;;;;;6249278;22;20022;-86
2022/01/14 10:45:24;;;;;;;0.00;0.00;;;4.80;99.90;;;;;;6224142;22;20465;-84
2022/01/14 10:47:53;;;;;;;0.10;0.10;;;4.70;99.90;;;;;;6276210;22;20016;-86
2022/01/14 10:50:30;;;;;;;0.10;0.10;;;4.80;99.90;;;;;;6286805;22;20069;-84
2022/01/14 10:52:58;;;;;;;0.10;0.10;;;4.80;99.90;;;;;;6249628;22;20016;-84
2022/01/14 10:55:31;;;;;;;0.10;0.10;;;4.90;99.90;;;;;;6276926;22;20074;-85
2022/01/14 10:58:01;;;;;;;0.10;0.10;;;4.90;99.90;;;;;;6249864;22;20019;-85
2022/01/14 11:00:46;;;;;;;0.00;0.00;;;4.90;99.90;;;;;;6276483;22;20066;-85
2022/01/14 11:03:14;;;;;;;0.17;0.17;;;5.00;99.90;;;;;;6249205;22;20020;-84
2022/01/14 11:05:42;;;;;;;0.10;0.10;;;;;;;;;;6249821;22;20008;-87
2022/01/14 11:08:10;;;;;;;0.10;0.10;;;5.10;99.90;;;;;;6250095;22;20023;-86
2022/01/14 11:10:38;;;;;;;0.10;0.10;;;5.10;99.90;;;;;;6251511;22;20015;-84
2022/01/14 11:13:07;;;;;;;0.10;0.10;;;5.10;99.90;;;;;;6225314;22;20093;-85
2022/01/14 11:15:35;;;;;;;0.00;0.00;;;5.20;99.90;;;;;;6250171;22;20086;-84
2022/01/14 11:18:05;;;;;;;0.10;0.10;;;5.20;99.90;;;;;;6249864;22;20466;-84
2022/01/14 11:20:36;;;;;;;;;;;5.20;99.90;;;;;;6277699;22;20173;-84
2022/01/14 11:23:15;;;;;;;0.10;0.10;;;5.30;99.90;;;;;;6249541;22;19915;-84
2022/01/14 11:25:59;;;;;;;0.10;0.10;;;5.30;99.90;;;;;;6225710;22;20067;-86
2022/01/14 11:28:29;;;;;;;0.10;0.10;;;5.20;99.90;;;;;;6249552;22;20019;-85
2022/01/14 11:30:56;;;;;;;0.10;0.10;;;5.50;99.90;;;;;;6259798;22;20023;-84
2022/01/14 11:33:38;;;;;;;0.10;0.10;;;5.30;99.90;;;;;;6249660;22;20077;-85
2022/01/14 11:36:07;;;;;;;0.10;0.10;;;;;;;;;;6249097;22;20038;-84
2022/01/14 11:38:40;;;;;;;0.08;0.08;;;5.10;99.90;;;;;;6248728;22;20101;-86
2022/01/14 11:41:10;;;;;;;0.10;0.10;;;5.10;99.90;;;;;;6259970;22;20081;-86
2022/01/14 11:43:39;;;;;;;0.10;0.10;;;5.30;99.90;;;;;;6249906;22;20016;-85
2022/01/14 11:46:10;;;;;;;0.10;0.10;;;5.30;99.90;;;;;;6249390;22;20007;-86
2022/01/14 11:48:42;;;;;;;0.10;0.10;;;5.30;99.90;;;;;;6276603;22;20234;-87
2022/01/14 11:51:11;;;;;;;0.10;0.10;;;5.40;99.90;;;;;;6250308;22;20023;-85
2022/01/14 11:53:42;;;;;;;0.10;0.10;;;5.40;99.90;;;;;;6249267;22;20078;-84
2022/01/14 11:56:50;;;;;;;0.10;0.10;;;5.40;99.90;;;;;;6249639;22;20450;-85
2022/01/14 11:59:41;;;;;;;0.10;0.10;;;5.40;99.90;;;;;;6274771;22;20081;-85
2022/01/14 12:02:32;;;;;;;0.10;0.10;;;5.40;99.90;;;;;;6223961;22;20397;-85
2022/01/14 12:05:20;;;;;;;0.10;0.10;;;5.40;99.90;;;;;;6250411;22;20011;-86
2022/01/14 12:08:12;;;;;;;0.10;0.10;;;5.50;99.90;;;;;;6223609;22;20081;-84
2022/01/14 12:10:45;;;;;;;0.10;0.10;;;5.50;99.90;;;;;;6276303;22;20019;-86
2022/01/14 12:13:28;;;;;;;0.10;0.10;;;5.40;99.90;;;;;;6224713;22;20836;-84
2022/01/14 12:16:01;;;;;;;0.10;0.10;;;5.40;99.90;;;;;;6225931;22;20016;-85
2022/01/14 12:19:11;;;;;;;0.10;0.10;;;5.40;99.90;;;;;;6251863;22;20019;-85
2022/01/14 12:22:00;;;;;;;0.10;0.10;;;5.40;99.90;;;;;;6225146;22;20020;-86
2022/01/14 12:24:32;;;;;;;0.10;0.10;;;5.50;99.90;;;;;;6243678;22;20027;-86
2022/01/14 12:27:21;;;;;;;0.10;0.10;;;5.50;99.90;;;;;;6225508;22;20016;-87
2022/01/14 12:29:50;;;;;;;0.10;0.10;;;5.50;99.90;;;;;;6250987;22;20085;-85
2022/01/14 12:32:20;;;;;;;0.10;0.10;;;5.60;99.90;;;;;;6225181;22;20020;-86
2022/01/14 17:57:43;;;;;;;0.10;0.10;;;5.50;99.90;;;;;;6307350;22;20023;-88
2022/01/14 18:00:11;;;;;;;0.10;0.10;;;5.30;99.90;;;;;;6284050;22;20019;-89
2022/01/14 18:02:39;;;;;;;0.10;0.10;;;5.30;99.90;;;;;;6283235;22;20015;-89
2022/01/14 18:05:07;;;;;;;0.10;0.10;;;5.20;99.90;;;;;;6284393;22;20015;-89
2022/01/14 18:07:34;;;;;;;0.10;0.10;;;5.30;99.90;;;;;;6284448;22;20015;-89
2022/01/14 18:10:04;;;;;;;0.10;0.10;;;5.30;99.90;;;;;;6284043;22;20019;-89
2022/01/14 18:12:35;;;;;;;0.10;0.10;;;5.40;99.90;;;;;;6283731;22;20026;-90
2022/01/14 18:15:07;;;;;;;0.10;0.10;;;5.50;99.90;;;;;;6258280;22;20011;-88
2022/01/14 18:17:34;;;;;;;0.10;0.10;;;5.60;99.90;;;;;;6283795;22;20096;-89
2022/01/14 18:20:01;;;;;;;0.10;0.10;;;5.70;99.90;;;;;;6258556;22;20022;-90
2022/01/14 18:22:28;;;;;;;0.10;0.10;;;5.70;99.90;;;;;;6311891;22;20019;-87
2022/01/14 18:24:55;;;;;;;0.10;0.10;;;5.80;99.90;;;;;;6283778;22;20342;-89
2022/01/14 18:27:22;;;;;;;0.10;0.10;;;5.80;99.90;;;;;;6284175;22;20029;-89
2022/01/14 18:29:49;;;;;;;0.10;0.10;;;;;;;;;;6284154;22;20015;-90
2022/01/14 18:32:17;;;;;;;0.10;0.10;;;5.80;99.90;;;;;;6311703;22;20457;-88
2022/01/14 18:34:44;;;;;;;0.10;0.10;;;;;;;;;;6283773;22;20019;-87
2022/01/14 18:37:12;;;;;;;0.10;0.10;;;;;;;;;;6320871;22;20022;-86
2022/01/14 18:39:39;;;;;;;0.10;0.10;;;;;;;;;;6282387;22;20426;-88
2022/01/14 18:42:07;;;;;;;0.10;0.10;;;;;;;;;;6282469;22;20596;-88
2022/01/14 18:44:35;;;;;;;0.10;0.10;;;;;;;;;;6282332;22;20035;-88
2022/01/14 18:47:03;;;;;;;0.10;0.10;;;5.80;99.90;;;;;;6282619;22;20019;-89
2022/01/14 18:49:31;;;;;;;0.10;0.10;;;5.80;99.90;;;;;;6282782;22;20367;-88
2022/01/14 18:51:59;;;;;;;0.10;0.10;;;;;;;;;;6282556;22;20023;-90
2022/01/14 18:54:28;;;;;;;0.10;0.10;;;;;;;;;;6282491;22;20019;-88
2022/01/14 18:56:57;;;;;;;0.10;0.10;;;5.80;99.90;;;;;;6282626;22;20381;-91
2022/01/14 18:59:24;;;;;;;0.10;0.10;;;5.70;99.90;;;;;;6282285;22;20019;-88
2022/01/14 19:01:51;;;;;;;0.10;0.10;;;;;;;;;;6282081;22;20015;-88
2022/01/14 19:04:19;;;;;;;0.10;0.10;;;;;;;;;;6282275;22;20023;-88
2022/01/14 19:06:47;;;;;;;0.10;0.10;;;5.90;99.90;;;;;;6282763;22;20036;-88
2022/01/14 19:09:14;;;;;;;0.10;0.10;;;;;;;;;;6282614;22;20019;-89
2022/01/14 19:11:43;;;;;;;0.10;0.10;;;;;;;;;;6283574;22;20023;-90
2022/01/14 19:14:10;;;;;;;0.10;0.10;;;;;;;;;;6283484;22;20064;-88
2022/01/14 19:16:39;;;;;;;0.17;0.17;;;6.00;99.90;;;;;;6310157;22;20019;-88
2022/01/14 19:19:09;;;;;;;0.10;0.10;;;6.00;99.90;;;;;;6282608;22;20085;-89
2022/01/14 19:21:37;;;;;;;0.10;0.10;;;;;;;;;;6310345;22;20127;-88
2022/01/14 19:24:06;;;;;;;0.10;0.10;;;6.00;99.90;;;;;;6309491;22;20019;-89
2022/01/14 19:26:34;;;;;;;0.10;0.10;;;;;;;;;;6282204;22;20457;-89
2022/01/14 19:29:03;;;;;;;0.10;0.10;;;6.00;99.90;;;;;;6282870;22;20453;-89
2022/01/14 19:31:31;;;;;;;0.10;0.10;;;;;;;;;;6282294;22;20019;-88
2022/01/14 19:33:58;;;;;;;0.10;0.10;;;;;;;;;;6282620;22;20019;-90
2022/01/14 19:36:25;;;;;;;0.10;0.10;;;;;;;;;;6282712;22;20022;-89
2022/01/14 19:38:53;;;;;;;0.10;0.10;;;;;;;;;;6282502;22;20448;-88
2022/01/14 19:41:21;;;;;;;0.10;0.10;;;5.90;99.90;;;;;;6309492;22;20065;-89
2022/01/14 19:43:48;;;;;;;0.10;0.10;;;;;;;;;;6282031;22;20020;-90
2022/01/14 19:46:18;;;;;;;0.10;0.10;;;5.90;99.90;;;;;;6281257;22;20038;-90
2022/01/14 19:48:47;;;;;;;0.10;0.10;;;6.00;99.90;;;;;;6280547;22;20097;-90
2022/01/14 19:51:14;;;;;;;0.10;0.10;;;;;;;;;;6281306;22;20015;-88
2022/01/14 19:53:41;;;;;;;0.10;0.10;;;;;;;;;;6281377;22;20023;-88
2022/01/14 19:56:09;;;;;;;0.10;0.10;;;;;;;;;;6281333;22;20022;-90
2022/01/14 19:58:37;;;;;;;0.05;0.05;;;6.00;99.90;;;;;;6307947;22;20015;-88
2022/01/14 20:01:05;;;;;;;0.10;0.10;;;;;;;;;;6308086;22;20020;-88
2022/01/14 20:03:33;;;;;;;0.00;0.00;;;6.00;99.90;;;;;;6280784;22;20047;-88
2022/01/14 20:06:00;;;;;;;0.10;0.10;;;;;;;;;;6280646;22;20519;-88
2022/01/14 20:08:36;;;;;;;0.10;0.10;;;;;;;;;;6292671;22;20015;-88
2022/01/14 20:11:05;;;;;;;0.10;0.10;;;;;;;;;;6281028;22;20030;-89
2022/01/14 20:13:33;;;;;;;0.10;0.10;;;5.90;99.90;;;;;;6280253;22;20354;-89
2022/01/14 20:16:03;;;;;;;0.10;0.10;;;6.00;99.90;;;;;;6280688;22;20018;-89
2022/01/14 20:18:31;;;;;;;0.10;0.10;;;;;;;;;;6280759;22;20069;-88
2022/01/14 20:20:58;;;;;;;0.10;0.10;;;;;;;;;;6307655;22;20022;-88
2022/01/14 20:23:25;;;;;;;0.10;0.10;;;;;;;;;;6280467;22;20026;-88
2022/01/14 20:25:52;;;;;;;0.10;0.10;;;;;;;;;;6280865;22;20012;-89
2022/01/14 20:28:20;;;;;;;0.10;0.10;;;;;;;;;;6281377;22;20026;-88
2022/01/14 20:30:48;;;;;;;0.10;0.10;;;5.70;99.90;;;;;;6281468;22;20384;-89
2022/01/14 20:33:17;;;;;;;0.10;0.10;;;5.80;99.90;;;;;;6308568;22;20061;-89
2022/01/14 20:35:44;;;;;;;0.10;0.10;;;;;;;;;;6283124;22;20022;-88
2022/01/14 20:38:12;;;;;;;0.10;0.10;;;5.90;99.90;;;;;;6284528;22;20092;-89
2022/01/14 20:40:39;;;;;;;0.10;0.10;;;;;;;;;;6284207;22;20031;-91
2022/01/14 20:43:06;;;;;;;0.10;0.10;;;;;;;;;;6311462;22;20016;-89
2022/01/14 20:45:35;;;;;;;0.10;0.10;;;6.00;99.90;;;;;;6321904;22;20037;-90
2022/01/14 20:48:05;;;;;;;0.10;0.10;;;6.00;99.90;;;;;;6283931;22;20019;-90
2022/01/14 20:50:36;;;;;;;0.10;0.10;;;6.20;99.90;;;;;;6283785;22;20028;-89
2022/01/14 20:53:05;;;;;;;0.10;0.10;;;6.10;99.90;;;;;;6283819;22;20042;-88
2022/01/14 20:55:34;;;;;;;0.10;0.10;;;6.10;99.90;;;;;;6284469;22;20023;-88
2022/01/14 20:58:03;;;;;;;0.10;0.10;;;8.80;99.90;;;;;;6283561;22;20075;-88
2022/01/14 21:00:30;;;;;;;0.10;0.10;;;;;;;;;;6311429;22;20022;-88
2022/01/14 21:02:58;;;;;;;0.00;0.00;;;;;;;;;;6283963;22;20415;-88
2022/01/14 21:05:46;;;;;;;0.10;0.10;;;6.10;99.90;;;;;;6287970;22;20108;-89
2022/01/14 21:08:13;;;;;;;0.10;0.10;;;;;;;;;;6311181;22;20311;-88
2022/01/14 21:10:43;;;;;;;0.10;0.10;;;;;;;;;;6284288;22;20026;-89
2022/01/14 21:13:17;;;;;;;0.10;0.10;;;;;;;;;;6285601;22;20076;-88
2022/01/14 21:15:47;;;;;;;0.10;0.10;;;;;;;;;;6284579;22;20076;-88
2022/01/14 21:18:15;;;;;;;0.10;0.10;;;;;;;;;;6284575;22;20446;-88
2022/01/14 21:20:42;;;;;;;0.10;0.10;;;;;;;;;;6284141;22;20046;-89
2022/01/14 21:23:10;;;;;;;0.10;0.10;;;6.00;99.90;;;;;;6284168;22;20016;-89
2022/01/14 21:25:37;;;;;;;0.10;0.10;;;;;;;;;;6311464;22;20030;-88
2022/01/14 21:28:04;;;;;;;0.10;0.10;;;;;;;;;;6283229;22;20396;-87
2022/01/14 21:30:32;;;;;;;0.10;0.10;;;;;;;;;;6310154;22;20429;-88
2022/01/14 21:32:59;;;;;;;0.10;0.10;;;;;;;;;;6283142;22;20076;-88
2022/01/14 21:35:28;;;;;;;0.00;0.00;;;;;;;;;;6283886;22;20084;-90
2022/01/14 21:37:56;;;;;;;0.10;0.10;;;;;;;;;;6310394;22;20002;-88
2022/01/14 21:40:24;;;;;;;0.10;0.10;;;6.10;99.90;;;;;;6283224;22;20053;-88
2022/01/14 21:42:51;;;;;;;0.10;0.10;;;;;;;;;;6283553;22;20030;-88
2022/01/14 21:45:23;;;;;;;0.10;0.10;;;;;;;;;;6283940;22;20026;-91
2022/01/14 21:47:50;;;;;;;0.10;0.10;;;;;;;;;;6282217;22;20465;-89
2022/01/14 21:50:17;;;;;;;0.10;0.10;;;;;;;;;;6282827;22;20027;-90
2022/01/14 21:52:44;;;;;;;0.10;0.10;;;;;;;;;;6283281;22;20393;-89
2022/01/14 21:55:16;;;;;;;0.10;0.10;;;6.00;99.90;;;;;;6283435;22;20022;-89
2022/01/14 21:57:45;;;;;;;0.10;0.10;;;6.00;99.90;;;;;;6283178;22;20020;-88
2022/01/14 22:00:13;;;;;;;0.10;0.10;;;4.20;99.90;;;;;;6309463;22;20023;-88
2022/01/14 22:02:40;;;;;;;0.10;0.10;;;;;;;;;;6283415;22;20018;-89
2022/01/14 22:05:27;;;;;;;0.10;0.10;;;;;;;;;;6286606;22;20086;-90
2022/01/14 22:07:54;;;;;;;0.10;0.10;;;;;;;;;;6282492;22;20485;-88
2022/01/14 22:10:21;;;;;;;0.10;0.10;;;;;;;;;;6282586;22;20462;-88
2022/01/14 22:12:59;;;;;;;0.10;0.10;;;6.10;99.90;;;;;;6282975;22;20022;-89
2022/01/14 22:15:29;;;;;;;0.10;0.10;;;;;;;;;;6282651;22;20026;-89
2022/01/14 22:17:57;;;;;;;0.10;0.10;;;;;;;;;;6282801;22;20350;-88
2022/01/14 22:20:24;;;;;;;0.10;0.10;;;;;;;;;;6309955;22;20458;-88
2022/01/14 22:22:52;;;;;;;0.10;0.10;;;;;;;;;;6310488;22;20022;-89
2022/01/14 22:25:19;;;;;;;0.05;0.05;;;;;;;;;;6283093;22;20022;-88
2022/01/14 22:27:46;;;;;;;0.10;0.10;;;;;;;;;;6282587;22;20026;-89
2022/01/14 22:30:14;;;;;;;0.10;0.10;;;6.20;99.90;;;;;;6282557;22;20040;-90
2022/01/14 22:32:44;;;;;;;0.10;0.10;;;;;;;;;;6283040;22;20023;-88
2022/01/14 22:35:11;;;;;;;0.10;0.10;;;;;;;;;;6293516;22;20073;-88
2022/01/14 22:37:38;;;;;;;0.10;0.10;;;;;;;;;;6283229;22;20011;-88
2022/01/14 22:40:06;;;;;;;0.10;0.10;;;;;;;;;;6310323;22;20015;-91
2022/01/14 22:42:34;;;;;;;0.10;0.10;;;;;;;;;;6283042;22;20027;-88
2022/01/14 22:45:01;;;;;;;0.10;0.10;;;;;;;;;;6282801;22;20022;-88
2022/01/14 22:47:29;;;;;;;0.10;0.10;;;6.20;99.90;;;;;;6309681;22;20027;-88
2022/01/14 22:49:59;;;;;;;0.10;0.10;;;8.20;99.90;;;;;;6281168;22;20019;-90
2022/01/14 22:52:26;;;;;;;0.10;0.10;;;;;;;;;;6282072;22;20045;-89
2022/01/14 22:54:53;;;;;;;0.10;0.10;;;;;;;;;;6282768;22;20515;-90
2022/01/14 22:57:21;;;;;;;0.10;0.10;;;;;;;;;;6282432;22;20019;-89
2022/01/14 22:59:49;;;;;;;0.10;0.10;;;;;;;;;;6282906;22;20030;-89
2022/01/14 23:02:16;;;;;;;0.10;0.10;;;6.10;99.90;;;;;;6309602;22;20022;-88
2022/01/14 23:04:45;;;;;;;0.10;0.10;;;6.20;99.90;;;;;;6282483;22;20022;-87
2022/01/14 23:07:12;;;;;;;0.08;0.08;;;;;;;;;;6282267;22;20038;-88
2022/01/14 23:09:39;;;;;;;0.10;0.10;;;;;;;;;;6282393;22;20518;-89
2022/01/14 23:12:07;;;;;;;0.10;0.10;;;6.10;99.90;;;;;;6281603;22;20469;-88
2022/01/14 23:14:35;;;;;;;0.10;0.10;;;;;;;;;;6282953;22;20060;-88
2022/01/14 23:17:03;;;;;;;0.10;0.10;;;6.10;99.90;;;;;;6310028;22;20042;-88
2022/01/14 23:19:30;;;;;;;0.10;0.10;;;;;;;;;;6281999;22;20450;-89
2022/01/14 23:21:59;;;;;;;0.10;0.10;;;6.10;99.90;;;;;;6309466;22;20030;-88
2022/01/14 23:24:26;;;;;;;0.10;0.10;;;;;;;;;;6282360;22;20019;-88
2022/01/14 23:26:53;;;;;;;0.10;0.10;;;;;;;;;;6282473;22;20015;-88
